Time;durP1;ratioP1;P1;durP2;ratioP2;P2;SDS_P1;SDS_P2;PMS_P1;PMS_P2;Temp;Humidity;BMP_temperature;BMP_pressure;BME280_temperature;BME280_humidity;BME280_pressure;Samples;Min_cycle;Max_cycle;Signal;HPM_P1;HPM_P2
2022/07/31 00:00:06;;;;;;;11.52;6.28;;;;;;;17.03;100.00;101112.94;4936896;29;20055;-83
2022/07/31 00:02:39;;;;;;;11.43;6.75;;;;;;;16.98;100.00;101120.19;4952978;29;20066;-84
2022/07/31 00:05:13;;;;;;;13.70;6.78;;;;;;;16.97;100.00;101112.25;4952390;29;20055;-84
2022/07/31 00:07:41;;;;;;;10.68;6.65;;;;;;;17.07;100.00;101105.69;4952208;29;20412;-83
2022/07/31 00:10:15;;;;;;;12.23;6.57;;;;;;;17.08;100.00;101108.16;4935787;29;20063;-84
2022/07/31 00:12:43;;;;;;;12.38;6.57;;;;;;;16.94;100.00;101096.38;4936276;29;20047;-83
2022/07/31 00:15:12;;;;;;;16.30;7.75;;;;;;;16.91;100.00;101108.81;4937253;29;20428;-84
2022/07/31 00:17:47;;;;;;;14.57;8.10;;;;;;;16.92;100.00;101106.91;4930433;29;20055;-84
2022/07/31 00:20:16;;;;;;;14.68;7.63;;;;;;;16.98;100.00;101105.63;4953687;29;20047;-84
2022/07/31 00:22:50;;;;;;;13.18;6.85;;;;;;;17.08;100.00;101107.31;4951756;29;20059;-85
2022/07/31 00:25:23;;;;;;;12.35;6.65;;;;;;;17.09;100.00;101103.44;4953475;29;20066;-84
2022/07/31 00:27:56;;;;;;;20.88;8.73;;;;;;;16.98;100.00;101103.69;4937660;29;20051;-84
2022/07/31 00:30:31;;;;;;;14.40;7.65;;;;;;;17.06;100.00;101107.63;4946886;29;20519;-84
2022/07/31 00:33:05;;;;;;;15.40;7.95;;;;;;;17.10;100.00;101102.34;4950056;29;20043;-83
2022/07/31 00:35:38;;;;;;;14.77;8.00;;;;;;;17.03;100.00;101101.94;4953496;29;20480;-82
2022/07/31 00:38:07;;;;;;;13.23;7.22;;;;;;;16.96;100.00;101102.41;4942733;29;20051;-83
2022/07/31 00:40:35;;;;;;;13.10;7.18;;;;;;;16.94;100.00;101099.13;4950701;29;20063;-83
2022/07/31 00:43:08;;;;;;;13.60;7.25;;;;;;;17.03;100.00;101102.78;4935604;29;20059;-82
2022/07/31 00:45:43;;;;;;;11.70;7.22;;;;;;;16.98;100.00;101097.38;4946437;29;20051;-83
2022/07/31 00:48:14;;;;;;;13.85;6.88;;;;;;;17.01;100.00;101091.25;4933278;29;20524;-84
2022/07/31 00:50:47;;;;;;;14.95;7.30;;;;;;;17.08;100.00;101096.31;4948397;29;20059;-83
2022/07/31 00:53:20;;;;;;;13.82;7.03;;;;;;;17.08;100.00;101091.66;4935646;29;20055;-84
2022/07/31 00:55:55;;;;;;;13.20;7.50;;;;;;;17.00;100.00;101100.66;4951742;29;20050;-84
2022/07/31 00:58:29;;;;;;;13.93;7.75;;;;;;;16.97;100.00;101093.84;4936306;29;20269;-84
2022/07/31 01:01:03;;;;;;;14.68;7.55;;;;;;;16.86;100.00;101094.38;4933943;29;20062;-85
2022/07/31 01:03:32;;;;;;;16.17;7.57;;;;;;;16.90;100.00;101092.66;4954688;29;20058;-83
2022/07/31 01:06:06;;;;;;;12.02;7.47;;;;;;;16.79;100.00;101092.88;4936905;29;20132;-83
2022/07/31 01:08:35;;;;;;;14.30;7.82;;;;;;;16.78;100.00;101096.75;4952424;29;20050;-84
2022/07/31 01:11:09;;;;;;;15.80;7.38;;;;;;;16.62;100.00;101073.50;4939896;29;20058;-84
2022/07/31 01:13:47;;;;;;;14.32;7.95;;;;;;;16.57;100.00;101090.09;4947469;29;20096;-84
2022/07/31 01:16:24;;;;;;;14.88;7.75;;;;;;;16.63;100.00;101092.41;4935378;29;20054;-83
2022/07/31 01:18:59;;;;;;;11.38;6.72;;;;;;;16.75;100.00;101089.13;4948971;29;20059;-84
2022/07/31 01:21:39;;;;;;;12.90;7.47;;;;;;;16.63;100.00;101080.63;4954298;29;20062;-85
2022/07/31 01:24:36;;;;;;;13.10;6.60;;;;;;;16.55;100.00;101071.19;4954092;29;20045;-83
2022/07/31 01:27:26;;;;;;;15.10;7.53;;;;;;;16.62;100.00;101074.31;4949590;29;20063;-83
2022/07/31 01:30:03;;;;;;;18.03;7.13;;;;;;;16.72;100.00;101086.97;4937407;29;20132;-84
2022/07/31 01:32:39;;;;;;;13.23;6.38;;;;;;;16.67;100.00;101084.38;4937154;29;20052;-83
2022/07/31 01:35:17;;;;;;;16.10;7.90;;;;;;;16.60;100.00;101086.72;4952536;29;20058;-84
2022/07/31 01:37:58;;;;;;;10.90;6.90;;;;;;;16.62;100.00;101089.97;4935154;29;20047;-83
2022/07/31 01:40:32;;;;;;;16.02;7.25;;;;;;;16.60;100.00;101090.28;4930482;29;20428;-83
2022/07/31 01:43:11;;;;;;;12.80;6.55;;;;;;;16.53;100.00;101086.34;4950648;29;20400;-83
2022/07/31 01:45:49;;;;;;;12.15;6.30;;;;;;;16.50;100.00;101090.53;4936734;29;20412;-84
2022/07/31 01:48:23;;;;;;;12.85;6.30;;;;;;;16.46;100.00;101090.34;4953538;29;20039;-83
2022/07/31 01:50:55;;;;;;;12.45;7.20;;;;;;;16.43;100.00;101088.22;4936870;29;20395;-84
2022/07/31 01:53:31;;;;;;;;;;;;;;;16.43;100.00;101090.13;4936276;29;20063;-83
2022/07/31 01:56:05;;;;;;;10.48;6.57;;;;;;;16.64;100.00;101080.31;4952015;29;20291;-84
2022/07/31 01:58:41;;;;;;;13.07;6.65;;;;;;;16.42;100.00;101081.09;4936208;29;20496;-82
2022/07/31 02:01:52;;;;;;;12.52;6.57;;;;;;;16.40;100.00;101077.03;4870632;29;20053;-83
2022/07/31 02:04:22;;;;;;;11.75;6.47;;;;;;;16.39;100.00;101076.22;4937751;29;20054;-83
2022/07/31 02:06:51;;;;;;;12.60;6.53;;;;;;;16.38;100.00;101073.75;4928354;29;20043;-83
2022/07/31 02:09:26;;;;;;;11.32;6.18;;;;;;;16.26;100.00;101077.88;4951663;29;20055;-83
2022/07/31 02:11:56;;;;;;;12.98;6.50;;;;;;;16.28;100.00;101070.16;4946693;29;20058;-83
2022/07/31 02:14:30;;;;;;;12.18;6.60;;;;;;;16.39;100.00;101078.97;4953883;29;20043;-83
2022/07/31 02:17:06;;;;;;;13.73;6.95;;;;;;;16.27;100.00;101076.75;4921505;29;20059;-83
2022/07/31 02:20:05;;;;;;;13.02;6.35;;;;;;;16.34;100.00;101070.84;4952909;29;20051;-84
2022/07/31 02:22:39;;;;;;;12.10;6.88;;;;;;;16.35;100.00;101085.38;4928117;29;20492;-82
2022/07/31 02:25:12;;;;;;;11.07;6.82;;;;;;;16.25;100.00;101083.66;4936767;29;20059;-82
2022/07/31 02:27:47;;;;;;;12.82;6.75;;;;;;;16.23;100.00;101066.72;4936245;29;20047;-83
2022/07/31 02:30:16;;;;;;;13.75;7.30;;;;;;;16.30;100.00;101072.59;4936784;29;20062;-82
2022/07/31 02:32:52;;;;;;;14.48;6.85;;;;;;;16.15;100.00;101077.28;4947123;29;20058;-84
2022/07/31 02:35:21;;;;;;;13.48;6.32;;;;;;;16.13;100.00;101087.78;4950101;29;20043;-83
2022/07/31 02:37:55;;;;;;;12.50;7.28;;;;;;;16.13;100.00;101087.78;4946293;29;20395;-83
2022/07/31 02:40:30;;;;;;;12.65;7.22;;;;;;;16.10;100.00;101101.28;4935644;29;20055;-85
2022/07/31 02:42:58;;;;;;;13.45;7.50;;;;;;;16.20;100.00;101079.13;4950099;29;20058;-84
2022/07/31 02:45:32;;;;;;;14.15;7.32;;;;;;;16.12;100.00;101088.06;4953795;29;20050;-84
2022/07/31 02:48:08;;;;;;;11.48;7.13;;;;;;;16.12;100.00;101079.84;4932513;29;20397;-83
2022/07/31 02:50:47;;;;;;;12.70;6.97;;;;;;;16.08;100.00;101090.63;4935793;29;20527;-83
2022/07/31 02:53:16;;;;;;;15.07;7.05;;;;;;;16.13;100.00;101082.28;4950820;29;20056;-84
2022/07/31 02:55:52;;;;;;;;;;;;;;;16.03;100.00;101087.16;4933357;29;20051;-82
2022/07/31 02:58:26;;;;;;;9.60;5.93;;;;;;;15.99;100.00;101078.72;4947851;29;19922;-84
2022/07/31 03:01:00;;;;;;;11.90;6.82;;;;;;;15.94;100.00;101071.41;4949394;29;20055;-84
2022/07/31 03:03:36;;;;;;;14.80;7.65;;;;;;;15.98;100.00;101074.38;4950107;29;20043;-84
2022/07/31 03:06:05;;;;;;;14.63;7.63;;;;;;;16.08;100.00;101073.34;4929256;29;20488;-84
2022/07/31 03:08:33;;;;;;;11.95;7.18;;;;;;;16.10;100.00;101063.69;4949216;29;20047;-83
2022/07/31 03:11:07;;;;;;;15.30;7.20;;;;;;;15.96;100.00;101071.94;4933297;29;20059;-84
2022/07/31 03:13:42;;;;;;;12.90;7.38;;;;;;;15.93;100.00;101072.53;4945353;29;20062;-84
2022/07/31 03:16:16;;;;;;;13.32;7.35;;;;;;;15.90;100.00;101072.34;4935700;29;20047;-84
2022/07/31 03:18:53;;;;;;;13.50;7.35;;;;;;;15.91;100.00;101068.47;4935807;29;20072;-86
2022/07/31 03:21:28;;;;;;;14.13;7.40;;;;;;;15.91;100.00;101061.06;4936062;29;20062;-84
2022/07/31 03:24:04;;;;;;;14.45;7.82;;;;;;;15.99;100.00;101059.50;4931842;29;20051;-84
2022/07/31 03:26:37;;;;;;;14.50;8.05;;;;;;;15.89;100.00;101052.31;4952033;28;20051;-86
2022/07/31 03:29:06;;;;;;;12.55;7.85;;;;;;;15.95;100.00;101055.75;4951062;29;20062;-86
2022/07/31 03:31:34;;;;;;;15.15;8.20;;;;;;;16.05;100.00;101065.72;4935903;29;20140;-86
2022/07/31 03:34:05;;;;;;;16.85;7.85;;;;;;;15.95;100.00;101063.97;4936163;29;20122;-86
2022/07/31 03:36:39;;;;;;;15.55;8.32;;;;;;;15.91;100.00;101052.00;4952294;29;20053;-85
2022/07/31 03:39:14;;;;;;;14.35;8.02;;;;;;;15.82;100.00;101060.13;4954485;29;20047;-86
2022/07/31 03:41:49;;;;;;;13.00;8.13;;;;;;;15.71;100.00;101051.28;4939159;29;20396;-87
2022/07/31 03:44:24;;;;;;;12.80;7.68;;;;;;;15.73;100.00;101060.03;4939124;29;20055;-86
2022/07/31 03:46:53;;;;;;;12.88;7.68;;;;;;;15.77;100.00;101065.69;4939092;29;20043;-86
2022/07/31 03:49:28;;;;;;;17.63;7.75;;;;;;;15.78;100.00;101061.84;4938216;29;20042;-86
2022/07/31 03:52:02;;;;;;;18.13;8.15;;;;;;;15.76;100.00;101067.63;4938557;29;20508;-85
2022/07/31 03:54:35;;;;;;;17.30;8.43;;;;;;;15.63;100.00;101060.22;4954935;29;20077;-87
2022/07/31 03:57:20;;;;;;;12.95;7.60;;;;;;;15.68;100.00;101046.41;4954149;29;20055;-83
2022/07/31 03:59:56;;;;;;;14.95;8.40;;;;;;;15.64;100.00;101054.41;4956647;29;20051;-85
2022/07/31 04:02:25;;;;;;;14.68;8.38;;;;;;;15.68;100.00;101059.31;4938783;29;20051;-86
2022/07/31 04:05:06;;;;;;;16.60;7.93;;;;;;;15.68;100.00;101057.38;4938604;29;20432;-85
2022/07/31 04:07:40;;;;;;;14.20;7.90;;;;;;;15.71;100.00;101056.75;4936333;29;20055;-85
2022/07/31 04:10:14;;;;;;;14.50;7.75;;;;;;;15.69;100.00;101060.91;4930968;29;20043;-85
2022/07/31 04:12:47;;;;;;;14.60;7.55;;;;;;;15.55;100.00;101053.53;4948322;29;20062;-85
2022/07/31 04:15:20;;;;;;;18.70;8.68;;;;;;;15.60;100.00;101058.09;4937317;29;20059;-85
2022/07/31 04:17:53;;;;;;;15.95;7.93;;;;;;;15.63;100.00;101052.81;4954339;29;20051;-85
2022/07/31 04:20:35;;;;;;;14.30;7.72;;;;;;;15.62;100.00;101056.66;4946255;29;20043;-86
2022/07/31 04:23:09;;;;;;;14.45;8.10;;;;;;;15.44;100.00;101057.59;4937991;29;20497;-84
2022/07/31 04:26:02;;;;;;;15.52;8.05;;;;;;;15.42;100.00;101057.06;4957664;28;20063;-85
2022/07/31 04:28:38;;;;;;;16.30;8.80;;;;;;;15.46;100.00;101056.13;4953870;29;20058;-87
2022/07/31 04:31:06;;;;;;;16.20;8.93;;;;;;;15.54;100.00;101062.06;4938420;29;20508;-85
2022/07/31 04:33:40;;;;;;;13.90;8.45;;;;;;;15.52;100.00;101054.09;4953676;29;20046;-86
2022/07/31 04:36:16;;;;;;;14.85;8.55;;;;;;;15.55;100.00;101049.94;4953806;29;20058;-85
2022/07/31 04:38:49;;;;;;;15.75;8.07;;;;;;;15.62;100.00;101048.44;4937804;29;20066;-87
2022/07/31 04:41:23;;;;;;;18.92;9.63;;;;;;;15.64;100.00;101056.34;4937002;29;20051;-87
2022/07/31 04:43:57;;;;;;;17.05;8.73;;;;;;;15.65;100.00;101060.75;4937728;29;20050;-86
2022/07/31 04:46:43;;;;;;;13.13;8.07;;;;;;;15.63;100.00;101072.00;4935564;29;20047;-86
2022/07/31 04:49:16;;;;;;;15.45;8.88;;;;;;;15.73;100.00;101083.88;4949801;28;20052;-86
2022/07/31 04:51:52;;;;;;;15.07;8.52;;;;;;;15.73;100.00;101078.41;4950564;29;20047;-86
2022/07/31 04:54:25;;;;;;;16.70;9.38;;;;;;;15.80;100.00;101071.44;4934408;29;20077;-87
2022/07/31 04:56:59;;;;;;;17.10;8.85;;;;;;;15.86;100.00;101076.81;4938998;29;20510;-86
2022/07/31 04:59:34;;;;;;;18.60;9.18;;;;;;;15.96;100.00;101080.16;4929832;29;20048;-87
2022/07/31 05:02:07;;;;;;;17.38;9.07;;;;;;;16.00;100.00;101068.56;4935940;29;20056;-87
2022/07/31 05:04:35;;;;;;;14.85;8.00;;;;;;;16.03;100.00;101074.25;4937764;28;20047;-87
2022/07/31 05:07:05;;;;;;;14.20;8.25;;;;;;;16.06;100.00;101083.81;4951329;28;20043;-86
2022/07/31 05:09:38;;;;;;;14.18;8.07;;;;;;;16.03;100.00;101078.94;4924919;29;20051;-87
2022/07/31 05:12:11;;;;;;;17.80;8.55;;;;;;;16.07;100.00;101078.00;4949145;28;20063;-84
2022/07/31 05:14:45;;;;;;;15.00;8.48;;;;;;;16.76;100.00;101070.69;4937359;29;20055;-86
2022/07/31 05:17:18;;;;;;;12.82;7.20;;;;;;;17.29;100.00;101066.34;4953160;29;20066;-84
2022/07/31 05:20:12;;;;;;;17.15;7.97;;;;;;;18.77;100.00;101060.34;4938090;29;20054;-89
2022/07/31 05:23:03;;;;;;;10.77;6.28;;;;;;;20.31;100.00;101053.22;4953676;29;20636;-88
2022/07/31 05:25:51;;;;;;;12.27;7.22;;;;;;;21.15;100.00;101050.34;4936780;29;20522;-86
2022/07/31 05:28:19;;;;;;;12.48;6.82;;;;;;;20.98;100.00;101061.63;4951372;29;20060;-86
2022/07/31 05:30:52;;;;;;;14.15;7.00;;;;;;;20.52;100.00;101054.03;4937492;29;20046;-87
2022/07/31 05:33:27;;;;;;;14.88;7.18;;;;;;;21.14;100.00;101048.72;4948412;29;20078;-88
2022/07/31 05:36:02;;;;;;;14.88;7.25;;;;;;;21.84;100.00;101038.75;4937104;29;20059;-87
2022/07/31 05:38:37;;;;;;;9.23;6.15;;;;;;;20.43;100.00;101046.97;4936701;29;20051;-85
2022/07/31 05:41:32;;;;;;;10.65;6.32;;;;;;;19.76;100.00;101052.25;4960562;28;20063;-87
2022/07/31 05:44:14;;;;;;;10.07;6.22;;;;;;;19.10;100.00;101047.97;4958453;28;20058;-86
2022/07/31 05:46:45;;;;;;;11.95;7.15;;;;;;;18.60;100.00;101046.56;4937152;29;20512;-86
2022/07/31 05:49:20;;;;;;;9.82;5.75;;;;;;;18.14;100.00;101049.63;4936439;29;20051;-86
2022/07/31 05:51:55;;;;;;;10.90;6.10;;;;;;;18.01;100.00;101050.63;4936710;29;20047;-87
2022/07/31 05:54:31;;;;;;;11.27;5.90;;;;;;;17.85;100.00;101048.25;4936765;29;20055;-86
2022/07/31 05:57:23;;;;;;;11.32;5.88;;;;;;;17.97;100.00;101047.69;4958809;28;20051;-84
2022/07/31 05:59:56;;;;;;;13.00;6.10;;;;;;;17.91;100.00;101059.13;4937262;29;20055;-88
2022/07/31 06:02:25;;;;;;;12.32;6.30;;;;;;;17.73;100.00;101059.09;4936301;29;20062;-86
2022/07/31 06:05:20;;;;;;;13.50;6.23;;;;;;;17.48;100.00;101069.69;4954966;28;20047;-85
2022/07/31 06:07:54;;;;;;;10.13;5.82;;;;;;;17.50;100.00;101064.66;4953457;29;20291;-86
2022/07/31 06:10:31;;;;;;;12.85;6.35;;;;;;;17.45;100.00;101053.00;4934837;29;20048;-90
2022/07/31 06:13:00;;;;;;;10.55;6.25;;;;;;;17.61;100.00;101056.16;4952474;29;20043;-86
2022/07/31 06:15:33;;;;;;;15.40;6.88;;;;;;;17.56;100.00;101062.59;4949603;28;20071;-86
2022/07/31 06:18:06;;;;;;;12.77;6.78;;;;;;;17.60;100.00;101052.56;4931075;29;20074;-87
2022/07/31 06:20:39;;;;;;;13.57;7.88;;;;;;;17.60;100.00;101047.06;4938681;29;20047;-87
2022/07/31 06:23:13;;;;;;;10.77;6.10;;;;;;;17.72;100.00;101045.63;4951657;29;20062;-86
2022/07/31 06:25:42;;;;;;;12.88;6.43;;;;;;;17.79;100.00;101052.31;4936915;29;20392;-87
2022/07/31 06:28:11;;;;;;;14.38;6.60;;;;;;;17.80;100.00;101058.59;4952402;28;20051;-86
2022/07/31 06:30:41;;;;;;;9.85;5.57;;;;;;;17.92;100.00;101058.03;4936286;29;20043;-85
2022/07/31 06:33:09;;;;;;;10.20;5.90;;;;;;;17.91;100.00;101045.34;4935929;29;20058;-87
2022/07/31 06:35:43;;;;;;;14.65;6.97;;;;;;;17.99;100.00;101048.19;4953261;29;20506;-87
2022/07/31 06:38:37;;;;;;;12.52;6.03;;;;;;;17.86;100.00;101046.34;4950016;28;20039;-88
2022/07/31 06:41:46;;;;;;;10.02;5.95;;;;;;;17.95;100.00;101051.88;4959203;29;20087;-85
2022/07/31 06:44:29;;;;;;;9.73;5.47;;;;;;;17.99;100.00;101045.44;4954753;29;20059;-87
2022/07/31 06:47:38;;;;;;;13.27;6.28;;;;;;;17.91;100.00;101050.88;4952258;29;20051;-86
2022/07/31 06:50:15;;;;;;;9.75;5.28;;;;;;;17.90;100.00;101055.56;4934275;29;20059;-87
2022/07/31 06:52:52;;;;;;;8.13;5.00;;;;;;;17.94;100.00;101051.09;4934512;29;20055;-86
2022/07/31 06:55:26;;;;;;;12.98;6.53;;;;;;;17.97;100.00;101053.19;4934373;29;20051;-84
2022/07/31 06:58:00;;;;;;;10.77;6.40;;;;;;;18.09;100.00;101055.31;4943236;29;20440;-88
2022/07/31 07:00:29;;;;;;;12.07;7.30;;;;;;;18.04;100.00;101040.91;4934723;29;20047;-87
2022/07/31 07:03:02;;;;;;;13.82;7.63;;;;;;;18.06;100.00;101055.94;4932565;29;20043;-85
2022/07/31 07:05:36;;;;;;;11.40;7.10;;;;;;;18.08;100.00;101050.94;4949329;29;20051;-87
2022/07/31 07:08:09;;;;;;;11.65;7.18;;;;;;;18.25;100.00;101049.34;4933543;28;20066;-86
2022/07/31 07:10:45;;;;;;;13.50;7.68;;;;;;;18.29;100.00;101045.59;4938004;29;20050;-88
2022/07/31 07:13:25;;;;;;;13.20;7.30;;;;;;;18.44;100.00;101043.53;4939461;29;20059;-88
2022/07/31 07:15:59;;;;;;;15.68;7.68;;;;;;;18.44;100.00;101027.78;4940024;29;20051;-88
2022/07/31 07:18:27;;;;;;;17.85;7.80;;;;;;;18.47;100.00;101029.09;4940414;29;20058;-87
2022/07/31 07:21:01;;;;;;;14.50;7.80;;;;;;;18.48;100.00;101030.72;4948523;29;20055;-88
2022/07/31 07:23:35;;;;;;;15.00;7.38;;;;;;;18.39;100.00;101025.19;4935905;29;20054;-88
2022/07/31 07:26:27;;;;;;;13.88;7.30;;;;;;;18.50;100.00;101025.66;4939286;29;20059;-90
2022/07/31 07:28:56;;;;;;;11.15;6.00;;;;;;;18.41;100.00;101011.06;4938863;29;20055;-87
2022/07/31 07:31:31;;;;;;;11.30;6.10;;;;;;;18.48;100.00;101025.19;4936569;29;20047;-88
2022/07/31 07:34:07;;;;;;;10.65;5.95;;;;;;;18.45;100.00;101020.31;4951250;28;20055;-90
2022/07/31 07:36:41;;;;;;;10.43;5.75;;;;;;;18.49;100.00;101019.34;4947844;28;20100;-87
2022/07/31 07:39:22;;;;;;;12.43;6.00;;;;;;;18.55;100.00;101016.41;4948066;28;20058;-89
2022/07/31 07:41:52;;;;;;;12.32;5.60;;;;;;;18.76;100.00;101013.81;4932717;29;20411;-92
2022/07/31 07:44:27;;;;;;;9.85;4.78;;;;;;;18.80;100.00;101014.78;4953242;28;20051;-90
2022/07/31 07:47:01;;;;;;;10.63;5.55;;;;;;;18.83;100.00;101011.34;4948512;28;20062;-88
2022/07/31 07:49:35;;;;;;;8.55;5.25;;;;;;;19.01;100.00;101017.66;4935875;29;20377;-88
2022/07/31 07:52:29;;;;;;;9.40;4.85;;;;;;;19.10;100.00;101003.84;4933152;29;20062;-89
2022/07/31 07:55:02;;;;;;;10.18;5.00;;;;;;;19.21;100.00;101005.13;4958795;28;20061;-90
2022/07/31 07:57:54;;;;;;;10.00;4.60;;;;;;;19.22;100.00;101006.72;4959265;28;20055;-88
2022/07/31 08:00:42;;;;;;;8.00;4.40;;;;;;;19.27;100.00;101005.75;4949404;28;20059;-88
2022/07/31 08:03:16;;;;;;;7.35;4.20;;;;;;;19.31;100.00;101009.47;4952526;28;20403;-89
2022/07/31 08:05:49;;;;;;;7.65;4.20;;;;;;;19.54;100.00;101007.22;4937724;29;20051;-90
2022/07/31 08:08:22;;;;;;;8.18;4.35;;;;;;;19.68;100.00;101007.00;4953696;28;20047;-88
2022/07/31 08:11:16;;;;;;;6.45;3.55;;;;;;;19.81;100.00;101007.91;4933776;28;20063;-88
2022/07/31 08:14:08;;;;;;;4.53;2.88;;;;;;;19.82;100.00;101007.56;4951584;28;20062;-89
2022/07/31 08:16:56;;;;;;;6.30;3.13;;;;;;;19.86;100.00;101000.25;4954347;28;20051;-90
2022/07/31 08:19:30;;;;;;;7.38;3.08;;;;;;;19.93;100.00;100991.44;4931856;28;20120;-90
2022/07/31 08:22:03;;;;;;;6.88;2.95;;;;;;;19.96;100.00;101004.56;4938656;29;20051;-90
2022/07/31 08:24:31;;;;;;;4.90;2.65;;;;;;;20.08;100.00;100998.31;4938122;29;20040;-87
2022/07/31 08:29:51;;;;;;;5.35;2.95;;;;;;;20.27;100.00;100997.00;4951517;28;20516;-89
2022/07/31 08:32:22;;;;;;;6.60;3.15;;;;;;;20.31;100.00;100997.94;4949348;28;20051;-87
2022/07/31 08:35:14;;;;;;;6.50;2.85;;;;;;;20.32;100.00;100999.56;4952420;28;20062;-89
2022/07/31 08:37:48;;;;;;;6.55;2.72;;;;;;;20.40;100.00;101001.44;4954599;28;20039;-89
2022/07/31 08:40:24;;;;;;;4.85;2.70;;;;;;;20.46;100.00;101000.09;4952477;28;20472;-89
2022/07/31 08:42:57;;;;;;;5.07;2.42;;;;;;;20.54;100.00;101004.72;4930879;29;20609;-90
2022/07/31 08:45:31;;;;;;;4.50;2.65;;;;;;;20.71;100.00;101012.09;4948717;29;20058;-88
2022/07/31 08:48:24;;;;;;;6.38;3.03;;;;;;;20.88;100.00;101011.09;4953404;28;20062;-87
2022/07/31 08:51:00;;;;;;;5.13;2.65;;;;;;;20.86;100.00;101021.66;4929328;29;20055;-85
2022/07/31 08:53:53;;;;;;;4.28;2.75;;;;;;;20.87;100.00;101020.53;4956551;28;20043;-88
2022/07/31 08:56:27;;;;;;;6.40;2.63;;;;;;;20.94;100.00;101016.41;4951505;28;20516;-89
2022/07/31 08:59:01;;;;;;;6.85;2.85;;;;;;;20.88;100.00;101018.56;4950458;29;20404;-85
2022/07/31 09:01:29;;;;;;;6.57;2.83;;;;;;;20.81;100.00;101007.25;4952421;28;20051;-88
2022/07/31 09:04:04;;;;;;;6.60;2.67;;;;;;;21.01;100.00;101016.66;4951656;29;20047;-89
2022/07/31 09:06:38;;;;;;;4.60;2.72;;;;;;;20.98;100.00;101014.56;4928312;29;20055;-87
2022/07/31 09:09:06;;;;;;;6.65;2.85;;;;;;;20.82;100.00;101009.69;4949628;28;20424;-87
2022/07/31 09:11:47;;;;;;;5.68;2.90;;;;;;;20.90;100.00;101002.44;4949126;29;20066;-90
2022/07/31 09:14:34;;;;;;;7.18;2.40;;;;;;;21.01;100.00;101008.34;4956122;28;20043;-86
2022/07/31 09:17:14;;;;;;;4.82;2.35;;;;;;;21.12;100.00;101012.28;4936009;29;20054;-87
2022/07/31 09:19:46;;;;;;;4.43;2.15;;;;;;;21.26;100.00;101006.41;4938047;29;20405;-88
2022/07/31 09:22:25;;;;;;;4.10;2.50;;;;;;;21.21;100.00;101001.09;4936026;29;20052;-89
2022/07/31 09:25:07;;;;;;;6.43;3.13;;;;;;;21.17;100.00;100994.63;4942825;28;20416;-89
2022/07/31 09:27:35;;;;;;;4.45;2.47;;;;;;;21.23;100.00;101002.38;4946293;28;20389;-90
2022/07/31 09:30:09;;;;;;;4.70;2.20;;;;;;;21.23;100.00;101005.13;4929773;29;20812;-86
2022/07/31 09:33:17;;;;;;;6.88;2.63;;;;;;;21.19;100.00;101006.19;4953688;28;20504;-85
2022/07/31 09:36:09;;;;;;;4.60;2.13;;;;;;;21.37;100.00;100990.97;4937413;28;20055;-88
2022/07/31 09:38:47;;;;;;;3.50;2.22;;;;;;;21.60;100.00;100996.06;4947275;28;20051;-88
2022/07/31 09:41:51;;;;;;;4.40;2.45;;;;;;;21.74;100.00;100995.72;4953880;28;20040;-85
2022/07/31 09:44:38;;;;;;;3.17;2.17;;;;;;;21.67;100.00;100990.75;4949747;28;20052;-86
2022/07/31 09:47:25;;;;;;;4.40;2.13;;;;;;;21.63;100.00;100978.75;4934542;29;20377;-87
2022/07/31 09:50:04;;;;;;;4.25;1.92;;;;;;;21.70;100.00;100972.63;4934308;29;20055;-88
2022/07/31 09:52:34;;;;;;;4.00;2.42;;;;;;;21.67;100.00;100973.34;4952330;29;20058;-86
2022/07/31 09:55:09;;;;;;;4.88;2.38;;;;;;;21.74;100.00;100979.88;4958846;28;20050;-86
2022/07/31 09:57:51;;;;;;;5.90;2.60;;;;;;;21.91;100.00;100976.03;4894328;29;20051;-85
2022/07/31 10:00:21;;;;;;;5.18;2.50;;;;;;;21.80;100.00;100965.81;4927055;29;20052;-84
2022/07/31 10:02:56;;;;;;;3.20;2.00;;;;;;;21.88;100.00;100976.75;4932916;28;20051;-86
2022/07/31 10:05:30;;;;;;;4.20;2.17;;;;;;;21.94;100.00;100979.28;4922177;29;20055;-83
2022/07/31 10:08:03;;;;;;;5.30;2.22;;;;;;;22.18;100.00;100972.84;4910177;28;20059;-87
2022/07/31 10:10:57;;;;;;;3.47;2.20;;;;;;;22.00;100.00;100972.31;4934406;28;20078;-84
2022/07/31 10:13:45;;;;;;;;;;;;;;;22.26;100.00;100971.88;4940358;28;20055;-85
2022/07/31 10:16:13;;;;;;;7.60;3.35;;;;;;;22.46;100.00;100967.34;4919039;28;20394;-86
2022/07/31 10:19:10;;;;;;;4.20;2.35;;;;;;;22.75;100.00;100960.56;4940615;28;20062;-86
2022/07/31 10:22:03;;;;;;;5.05;2.10;;;;;;;22.55;100.00;100956.88;4943226;28;20492;-83
2022/07/31 10:24:44;;;;;;;5.25;2.17;;;;;;;22.40;91.59;100964.00;4921224;29;20489;-86
2022/07/31 10:27:18;;;;;;;6.18;2.20;;;;;;;22.18;96.42;100948.72;4921818;29;20062;-87
2022/07/31 10:29:59;;;;;;;10.27;2.20;;;;;;;22.49;100.00;100946.41;4918212;28;20055;-86
2022/07/31 10:32:28;;;;;;;8.55;1.92;;;;;;;22.43;100.00;100943.09;4918344;28;20061;-85
2022/07/31 10:35:21;;;;;;;3.72;1.90;;;;;;;22.48;100.00;100933.69;4943722;28;20809;-83
2022/07/31 10:38:03;;;;;;;3.97;2.00;;;;;;;22.55;100.00;100931.09;4939085;28;20070;-85
2022/07/31 10:40:53;;;;;;;3.85;1.90;;;;;;;22.60;97.25;100936.41;4934503;29;20055;-87
2022/07/31 10:43:29;;;;;;;3.90;1.77;;;;;;;22.81;100.00;100932.56;4924296;29;20074;-88
2022/07/31 10:46:26;;;;;;;3.08;1.85;;;;;;;22.90;97.81;100924.88;4941882;28;20055;-88
2022/07/31 10:49:13;;;;;;;4.18;2.03;;;;;;;23.10;93.03;100917.41;4942939;28;20573;-88
2022/07/31 10:52:26;;;;;;;5.25;1.80;;;;;;;23.60;100.00;100917.78;4933468;28;20079;-86
2022/07/31 10:55:17;;;;;;;5.00;1.67;;;;;;;23.85;95.19;100920.31;4936334;29;20059;-84
2022/07/31 10:58:16;;;;;;;5.25;1.83;;;;;;;23.68;94.31;100919.56;4922150;28;20059;-87
2022/07/31 11:00:52;;;;;;;3.40;1.70;;;;;;;23.68;95.96;100918.75;4948494;28;20503;-87
2022/07/31 11:03:43;;;;;;;5.70;1.95;;;;;;;23.38;83.01;100911.78;4939572;28;20976;-85
2022/07/31 11:06:38;;;;;;;3.38;1.90;;;;;;;23.23;83.47;100907.88;4940166;29;20051;-85
2022/07/31 11:09:41;;;;;;;6.30;2.27;;;;;;;23.25;89.86;100902.75;4941002;28;20429;-87
2022/07/31 11:12:28;;;;;;;3.33;1.90;;;;;;;23.56;86.72;100895.50;4936408;29;20499;-83
2022/07/31 11:15:21;;;;;;;6.72;2.00;;;;;;;23.80;80.82;100903.94;4942072;28;20050;-86
2022/07/31 11:18:13;;;;;;;3.67;1.88;;;;;;;23.70;83.21;100906.13;4942323;29;20051;-85
2022/07/31 11:20:46;;;;;;;4.13;1.83;;;;;;;24.02;90.31;100899.66;4945349;29;20039;-83
2022/07/31 11:23:29;;;;;;;5.60;1.92;;;;;;;24.17;87.10;100895.97;4937132;28;20089;-86
2022/07/31 11:26:05;;;;;;;5.45;1.75;;;;;;;24.10;85.03;100893.06;4939124;28;20405;-87
2022/07/31 11:28:33;;;;;;;;;;;;;;;24.08;92.13;100901.75;4922275;28;20507;-88
2022/07/31 11:31:03;;;;;;;;;;;;;;;23.97;82.22;100897.16;4936453;28;19931;-90
2022/07/31 11:33:39;;;;;;;;;;;;;;;23.91;81.01;100893.88;4942325;28;19937;-89
2022/07/31 11:36:13;;;;;;;;;;;;;;;23.96;79.38;100890.81;4933374;28;19937;-86
2022/07/31 11:38:48;;;;;;;;;;;;;;;24.26;85.01;100877.09;4916297;29;19931;-85
2022/07/31 11:41:16;;;;;;;;;;;;;;;24.40;86.19;100881.28;4936643;28;19930;-85
2022/07/31 11:43:49;;;;;;;;;;;;;;;24.51;80.20;100868.34;4939534;29;19930;-83
2022/07/31 11:46:25;;;;;;;;;;;;;;;24.53;83.79;100866.03;4923166;29;19922;-86
2022/07/31 11:48:54;;;;;;;;;;;;;;;24.65;78.22;100872.59;4935232;28;19937;-90
2022/07/31 11:51:27;;;;;;;;;;;;;;;24.22;75.29;100872.63;4921357;29;19922;-85
2022/07/31 11:53:56;;;;;;;;;;;;;;;24.27;82.49;100872.31;4935647;28;19931;-84
2022/07/31 11:56:29;;;;;;;;;;;;;;;24.59;81.67;100866.53;4933862;28;19930;-86
2022/07/31 11:59:02;;;;;;;;;;;;;;;24.51;73.66;100859.22;4935120;28;19930;-84
2022/07/31 12:01:36;;;;;;;;;;;;;;;24.46;77.96;100860.34;4938154;28;19957;-85
2022/07/31 12:04:05;;;;;;;;;;;;;;;24.67;80.87;100864.69;4935095;28;19934;-89